Time;durP1;ratioP1;P1;durP2;ratioP2;P2;SDS_P1;SDS_P2;PMS_P1;PMS_P2;Temp;Humidity;BMP_temperature;BMP_pressure;BME280_temperature;BME280_humidity;BME280_pressure;Samples;Min_cycle;Max_cycle;Signal;HPM_P1;HPM_P2
2023/06/18 00:01:22;;;;;;;12.30;6.97;;;19.70;99.90;;;;;;4997819;28;20097;-67
2023/06/18 00:03:48;;;;;;;8.77;6.38;;;19.90;99.90;;;;;;4996912;28;20033;-68
2023/06/18 00:06:13;;;;;;;10.48;6.43;;;19.80;99.90;;;;;;4997741;28;20030;-67
2023/06/18 00:08:39;;;;;;;11.93;6.63;;;19.70;99.90;;;;;;4996838;28;20089;-67
2023/06/18 00:11:04;;;;;;;15.18;7.38;;;19.60;99.90;;;;;;4996602;28;20094;-67
2023/06/18 00:13:30;;;;;;;10.07;6.70;;;19.50;99.90;;;;;;4996628;28;20088;-67
2023/06/18 00:15:55;;;;;;;12.38;7.43;;;19.40;99.90;;;;;;4998332;28;20027;-67
2023/06/18 00:18:21;;;;;;;11.70;6.57;;;19.30;99.90;;;;;;4996487;28;20121;-67
2023/06/18 00:20:48;;;;;;;8.32;6.38;;;19.40;99.90;;;;;;4997050;28;20053;-67
2023/06/18 00:23:14;;;;;;;12.07;6.95;;;19.30;99.90;;;;;;4997398;28;20018;-67
2023/06/18 00:25:40;;;;;;;8.70;6.25;;;19.30;99.90;;;;;;4997990;28;20110;-67
2023/06/18 00:28:05;;;;;;;9.45;6.35;;;19.20;99.90;;;;;;4997980;28;20031;-67
2023/06/18 00:30:32;;;;;;;11.98;6.35;;;19.30;99.90;;;;;;4997555;28;20122;-67
2023/06/18 00:32:58;;;;;;;9.10;6.53;;;19.20;99.90;;;;;;4996862;28;20030;-67
2023/06/18 00:35:23;;;;;;;10.55;6.97;;;19.20;99.90;;;;;;4996528;28;20026;-67
2023/06/18 00:37:49;;;;;;;13.02;7.28;;;19.10;99.90;;;;;;4996604;28;20033;-67
2023/06/18 00:40:15;;;;;;;10.88;7.00;;;19.10;99.90;;;;;;4996508;28;20029;-67
2023/06/18 00:42:41;;;;;;;12.20;7.15;;;19.00;99.90;;;;;;4997259;28;20105;-67
2023/06/18 00:45:12;;;;;;;15.20;6.90;;;19.00;99.90;;;;;;4997053;28;20045;-67
2023/06/18 00:47:42;;;;;;;11.63;6.32;;;18.90;99.90;;;;;;4997331;28;20090;-67
2023/06/18 00:50:08;;;;;;;12.27;6.68;;;18.70;99.90;;;;;;4997562;28;20027;-67
2023/06/18 00:52:36;;;;;;;9.38;6.22;;;18.70;99.90;;;;;;4996340;28;20026;-67
2023/06/18 00:55:03;;;;;;;13.07;6.07;;;18.80;99.90;;;;;;4996433;28;20027;-67
2023/06/18 00:57:30;;;;;;;10.88;6.57;;;18.70;99.90;;;;;;4997284;28;20026;-67
2023/06/18 00:59:56;;;;;;;11.65;6.78;;;18.80;99.90;;;;;;4997306;28;20052;-68
2023/06/18 01:02:25;;;;;;;9.43;6.28;;;18.70;99.90;;;;;;4996305;28;20023;-67
2023/06/18 01:04:55;;;;;;;10.40;6.85;;;18.70;99.90;;;;;;4997159;28;20101;-68
2023/06/18 01:07:22;;;;;;;8.32;5.75;;;18.60;99.90;;;;;;4997142;28;20026;-67
2023/06/18 01:09:53;;;;;;;7.60;5.72;;;18.50;99.90;;;;;;4997656;28;20018;-67
2023/06/18 01:12:20;;;;;;;11.10;5.88;;;18.50;99.90;;;;;;4997072;28;20105;-68
2023/06/18 01:14:50;;;;;;;10.68;6.22;;;18.60;99.90;;;;;;4997098;28;20117;-67
2023/06/18 01:17:18;;;;;;;8.45;5.90;;;18.30;99.90;;;;;;4996180;28;20030;-67
2023/06/18 01:19:57;;;;;;;8.75;5.95;;;18.30;99.90;;;;;;4996146;28;20033;-67
2023/06/18 01:22:42;;;;;;;12.95;6.70;;;18.20;99.90;;;;;;4997775;28;20026;-67
2023/06/18 01:25:08;;;;;;;7.90;5.90;;;18.20;99.90;;;;;;4999824;28;20026;-69
2023/06/18 01:27:40;;;;;;;8.05;5.57;;;18.20;99.90;;;;;;5000625;28;20027;-69
2023/06/18 01:30:09;;;;;;;9.70;5.97;;;18.20;99.90;;;;;;5000532;28;20022;-69
2023/06/18 01:32:38;;;;;;;13.32;6.10;;;18.20;99.90;;;;;;5000026;28;20041;-71
2023/06/18 01:35:14;;;;;;;9.38;6.03;;;18.30;99.90;;;;;;4999909;28;20094;-71
2023/06/18 01:37:58;;;;;;;10.23;5.95;;;18.30;99.90;;;;;;4999571;28;20030;-71
2023/06/18 01:40:29;;;;;;;10.55;5.85;;;18.10;99.90;;;;;;4999407;28;20212;-71
2023/06/18 01:43:11;;;;;;;11.43;6.07;;;18.10;99.90;;;;;;4999273;28;20027;-71
2023/06/18 01:45:46;;;;;;;11.50;5.65;;;18.00;99.90;;;;;;4999513;28;20033;-71
2023/06/18 01:48:15;;;;;;;14.05;6.22;;;18.10;99.90;;;;;;4999237;28;20050;-71
2023/06/18 01:50:43;;;;;;;9.65;6.03;;;18.20;99.90;;;;;;4999317;28;20050;-71
2023/06/18 01:53:13;;;;;;;11.68;6.05;;;18.20;99.90;;;;;;4999223;28;20188;-71
2023/06/18 01:55:41;;;;;;;11.15;5.97;;;18.10;99.90;;;;;;5000191;28;20026;-71
2023/06/18 01:58:07;;;;;;;13.57;5.90;;;17.80;99.90;;;;;;4999430;28;20026;-71
2023/06/18 02:00:32;;;;;;;8.77;6.13;;;17.80;99.90;;;;;;4999238;28;20026;-71
2023/06/18 02:02:58;;;;;;;11.93;6.10;;;17.80;99.90;;;;;;4999006;28;20033;-71
2023/06/18 02:05:24;;;;;;;9.68;6.50;;;17.70;99.90;;;;;;4998964;28;20029;-71
2023/06/18 02:07:50;;;;;;;12.07;5.68;;;17.70;99.90;;;;;;4999008;28;20026;-71
2023/06/18 02:10:15;;;;;;;10.75;5.90;;;17.90;99.90;;;;;;4999298;28;20121;-71
2023/06/18 02:12:41;;;;;;;11.13;5.50;;;17.90;99.90;;;;;;4999293;28;20037;-71
2023/06/18 02:15:07;;;;;;;9.07;5.57;;;17.80;99.90;;;;;;4999230;28;20026;-71
2023/06/18 02:17:32;;;;;;;8.98;5.82;;;17.70;99.90;;;;;;4998716;28;20030;-71
2023/06/18 02:19:58;;;;;;;8.70;5.70;;;17.80;99.90;;;;;;4999064;28;20121;-71
2023/06/18 02:22:24;;;;;;;8.05;5.60;;;17.90;99.90;;;;;;4999595;28;20029;-71
2023/06/18 02:24:49;;;;;;;9.93;5.88;;;17.90;99.90;;;;;;4999624;28;20019;-71
2023/06/18 02:27:15;;;;;;;9.85;5.53;;;17.90;99.90;;;;;;4998928;28;20082;-71
2023/06/18 02:29:45;;;;;;;6.78;5.30;;;17.90;99.90;;;;;;4998755;28;20026;-71
2023/06/18 02:32:11;;;;;;;8.73;5.85;;;17.70;99.90;;;;;;4999586;28;20038;-71
2023/06/18 02:34:37;;;;;;;9.55;6.05;;;17.50;99.90;;;;;;4998307;28;20030;-71
2023/06/18 02:37:03;;;;;;;10.10;5.97;;;17.50;99.90;;;;;;4999447;28;20022;-71
2023/06/18 02:39:29;;;;;;;10.32;5.18;;;17.70;99.90;;;;;;4998347;28;20022;-71
2023/06/18 02:41:55;;;;;;;10.63;5.68;;;17.70;99.90;;;;;;4998452;28;20121;-71
2023/06/18 02:44:20;;;;;;;9.32;6.00;;;17.80;99.90;;;;;;4999401;28;20097;-71
2023/06/18 02:46:46;;;;;;;10.38;5.72;;;17.80;99.90;;;;;;4998364;28;20058;-71
2023/06/18 02:49:11;;;;;;;9.95;5.95;;;17.80;99.90;;;;;;4998203;28;20031;-71
2023/06/18 02:51:37;;;;;;;8.75;5.65;;;17.80;99.90;;;;;;4998531;28;20026;-71
2023/06/18 02:54:02;;;;;;;9.93;5.47;;;17.70;99.90;;;;;;4998398;28;20030;-71
2023/06/18 02:56:28;;;;;;;9.70;5.80;;;17.60;99.90;;;;;;4999040;28;20141;-71
2023/06/18 02:58:56;;;;;;;10.30;5.65;;;17.50;99.90;;;;;;4998202;28;20033;-71
2023/06/18 03:01:25;;;;;;;10.00;6.15;;;17.40;99.90;;;;;;4997878;28;20031;-71
2023/06/18 03:03:51;;;;;;;9.43;5.93;;;17.40;99.90;;;;;;4998294;28;20083;-71
2023/06/18 03:06:17;;;;;;;11.50;6.60;;;17.40;99.90;;;;;;4998099;28;20022;-71
2023/06/18 03:08:43;;;;;;;9.40;6.32;;;17.30;99.90;;;;;;4998842;28;20019;-71
2023/06/18 03:11:08;;;;;;;10.77;6.35;;;17.10;99.90;;;;;;4998453;28;20033;-71
2023/06/18 03:13:34;;;;;;;9.98;6.53;;;17.00;99.90;;;;;;4998108;28;20022;-71
2023/06/18 03:16:00;;;;;;;8.00;6.13;;;17.10;99.90;;;;;;4997796;28;20026;-71
2023/06/18 03:18:25;;;;;;;14.90;6.03;;;17.00;99.90;;;;;;4997731;28;20034;-71
2023/06/18 03:20:51;;;;;;;9.13;5.95;;;16.90;99.90;;;;;;4997567;28;20080;-71
2023/06/18 03:23:17;;;;;;;10.95;6.20;;;17.00;99.90;;;;;;4997509;28;20041;-71
2023/06/18 03:25:42;;;;;;;11.15;6.60;;;17.00;99.90;;;;;;4997795;28;20018;-71
2023/06/18 03:28:08;;;;;;;7.75;5.80;;;17.10;99.90;;;;;;4997636;28;20046;-71
2023/06/18 03:30:33;;;;;;;8.07;5.95;;;17.10;99.90;;;;;;4997727;28;20113;-71
2023/06/18 03:33:02;;;;;;;10.95;6.30;;;17.00;99.90;;;;;;4998581;28;20034;-71
2023/06/18 03:35:28;;;;;;;8.90;6.38;;;17.00;99.90;;;;;;4997290;28;20022;-71
2023/06/18 03:37:54;;;;;;;10.30;5.85;;;17.10;99.90;;;;;;4998310;28;20030;-71
2023/06/18 03:40:19;;;;;;;9.57;6.13;;;17.20;99.90;;;;;;4997186;28;20030;-71
2023/06/18 03:42:45;;;;;;;10.43;5.75;;;17.30;99.90;;;;;;4997171;28;20026;-71
2023/06/18 03:45:10;;;;;;;9.68;6.35;;;17.10;99.90;;;;;;4997140;28;20026;-71
2023/06/18 03:47:36;;;;;;;11.45;6.28;;;17.10;99.90;;;;;;4997392;28;20061;-71
2023/06/18 03:50:02;;;;;;;14.98;5.95;;;17.10;99.90;;;;;;4997998;28;20113;-71
2023/06/18 03:52:27;;;;;;;9.18;5.65;;;17.20;99.90;;;;;;4997028;28;20074;-71
2023/06/18 03:54:53;;;;;;;8.25;5.20;;;17.20;99.90;;;;;;4997287;28;20022;-71
2023/06/18 03:57:18;;;;;;;10.77;5.40;;;17.30;99.90;;;;;;4997020;28;20038;-71
2023/06/18 03:59:44;;;;;;;10.30;6.03;;;17.20;99.90;;;;;;4997825;28;20032;-71
2023/06/18 04:02:10;;;;;;;7.72;5.65;;;17.20;99.90;;;;;;4996973;28;20046;-71
2023/06/18 04:04:35;;;;;;;7.38;5.88;;;17.20;99.90;;;;;;4997860;28;20098;-71
2023/06/18 04:07:01;;;;;;;11.25;5.97;;;17.20;99.90;;;;;;4997707;28;20050;-71
2023/06/18 04:09:27;;;;;;;8.57;5.88;;;17.20;99.90;;;;;;4996873;28;20033;-71
2023/06/18 04:11:54;;;;;;;9.80;6.05;;;17.20;99.90;;;;;;4997519;28;20026;-71
2023/06/18 04:14:20;;;;;;;8.63;5.70;;;17.20;99.90;;;;;;4997733;28;20022;-71
2023/06/18 04:16:45;;;;;;;10.13;6.10;;;17.20;99.90;;;;;;4997644;28;20033;-71
2023/06/18 04:19:11;;;;;;;10.05;5.63;;;17.10;99.90;;;;;;4996617;28;20049;-71
2023/06/18 04:21:37;;;;;;;10.02;5.78;;;17.20;99.90;;;;;;4996557;28;20023;-71
2023/06/18 04:24:03;;;;;;;8.73;5.63;;;17.10;99.90;;;;;;4996662;28;20029;-71
2023/06/18 04:26:28;;;;;;;9.98;5.75;;;17.10;99.90;;;;;;4996620;28;20022;-71
2023/06/18 04:28:54;;;;;;;12.02;6.70;;;17.10;99.90;;;;;;4996821;28;20034;-71
2023/06/18 04:31:19;;;;;;;7.55;5.28;;;17.20;99.90;;;;;;4996622;28;20042;-71
2023/06/18 04:33:45;;;;;;;8.73;5.88;;;17.20;99.90;;;;;;4996441;28;20045;-71
2023/06/18 04:36:11;;;;;;;10.00;6.13;;;17.10;99.90;;;;;;4996788;28;20038;-71
2023/06/18 04:38:37;;;;;;;9.45;5.20;;;17.10;99.90;;;;;;4996569;28;20077;-71
2023/06/18 04:41:02;;;;;;;10.30;5.82;;;17.20;99.90;;;;;;4996825;28;20025;-71
2023/06/18 04:43:28;;;;;;;11.48;5.95;;;17.10;99.90;;;;;;4996804;28;20029;-71
2023/06/18 04:45:54;;;;;;;8.80;5.32;;;17.20;99.90;;;;;;4996425;28;20029;-71
2023/06/18 04:48:19;;;;;;;8.20;5.82;;;17.20;99.90;;;;;;4997441;28;20023;-71
2023/06/18 04:50:45;;;;;;;8.38;5.57;;;17.20;99.90;;;;;;4996818;28;20076;-71
2023/06/18 04:53:10;;;;;;;10.45;6.10;;;17.10;99.90;;;;;;4997499;28;20034;-71
2023/06/18 04:55:39;;;;;;;11.45;6.88;;;17.10;99.90;;;;;;4997668;28;20037;-71
2023/06/18 04:58:04;;;;;;;8.32;5.82;;;17.10;99.90;;;;;;5001205;28;20029;-71
2023/06/18 05:00:31;;;;;;;8.55;5.82;;;17.00;99.90;;;;;;5000458;28;20026;-71
2023/06/18 05:02:57;;;;;;;10.02;6.40;;;17.10;99.90;;;;;;5000277;28;20069;-71
2023/06/18 05:05:23;;;;;;;10.82;6.07;;;17.10;99.90;;;;;;5001185;28;20014;-71
2023/06/18 05:07:48;;;;;;;8.82;5.95;;;17.30;99.90;;;;;;5000188;28;20022;-71
2023/06/18 05:10:14;;;;;;;12.45;6.55;;;17.30;99.90;;;;;;5000974;28;20022;-71
2023/06/18 05:12:39;;;;;;;14.48;6.53;;;17.30;99.90;;;;;;4999934;28;20034;-71
2023/06/18 05:15:06;;;;;;;10.90;6.18;;;17.50;99.90;;;;;;4999928;28;20061;-71
2023/06/18 05:17:33;;;;;;;10.35;6.80;;;17.60;99.90;;;;;;4999903;28;20058;-71
2023/06/18 05:20:01;;;;;;;8.93;6.45;;;17.60;99.90;;;;;;4999964;28;20054;-71
2023/06/18 05:22:26;;;;;;;11.13;6.47;;;17.60;99.90;;;;;;4999731;28;20031;-71
2023/06/18 05:24:52;;;;;;;9.15;5.95;;;17.70;99.90;;;;;;5000325;28;20026;-71
2023/06/18 05:27:17;;;;;;;9.18;6.13;;;17.70;99.90;;;;;;4999738;28;20194;-71
2023/06/18 05:29:43;;;;;;;9.98;6.60;;;17.60;99.90;;;;;;5000800;28;20022;-71
2023/06/18 05:32:09;;;;;;;11.73;6.45;;;17.30;99.90;;;;;;4999675;28;20042;-71
2023/06/18 05:34:35;;;;;;;12.13;6.82;;;17.60;99.90;;;;;;5000394;28;20101;-71
2023/06/18 05:37:01;;;;;;;11.20;6.07;;;17.60;99.90;;;;;;4999622;28;20112;-71
2023/06/18 05:39:26;;;;;;;17.55;7.13;;;17.60;99.90;;;;;;4999506;28;20132;-71
2023/06/18 05:41:52;;;;;;;16.77;7.78;;;17.60;99.90;;;;;;4999316;28;20030;-71
2023/06/18 05:44:18;;;;;;;9.05;6.72;;;17.70;99.90;;;;;;4999531;28;20018;-71
2023/06/18 05:46:43;;;;;;;10.10;6.85;;;17.80;99.90;;;;;;5000266;28;20041;-71
2023/06/18 05:49:09;;;;;;;12.25;6.07;;;17.90;99.90;;;;;;5000322;28;20084;-71
2023/06/18 05:51:35;;;;;;;9.57;6.72;;;18.00;99.90;;;;;;5000037;28;20022;-71
2023/06/18 05:54:01;;;;;;;10.85;7.18;;;18.10;99.90;;;;;;4999279;28;20080;-71
2023/06/18 05:56:26;;;;;;;10.52;6.53;;;18.20;99.90;;;;;;4999560;28;20038;-71
2023/06/18 05:58:53;;;;;;;8.85;6.22;;;18.30;99.90;;;;;;4999044;28;20027;-71
2023/06/18 06:01:18;;;;;;;11.70;6.53;;;18.40;99.90;;;;;;4998970;28;20022;-71
2023/06/18 06:03:44;;;;;;;11.30;6.93;;;18.30;99.90;;;;;;5000272;28;20014;-71
2023/06/18 06:06:09;;;;;;;10.55;6.75;;;18.40;99.90;;;;;;4998989;28;20029;-71
2023/06/18 06:08:35;;;;;;;12.43;6.50;;;18.40;99.90;;;;;;4999002;28;20025;-71
2023/06/18 06:11:01;;;;;;;8.30;6.10;;;18.30;99.90;;;;;;4998957;28;20033;-71
2023/06/18 06:13:26;;;;;;;10.43;6.72;;;18.30;99.90;;;;;;4998858;28;20023;-71
2023/06/18 06:15:52;;;;;;;11.13;6.40;;;18.40;99.90;;;;;;4998897;28;20023;-71
2023/06/18 06:18:18;;;;;;;7.93;5.95;;;18.60;99.90;;;;;;4999167;28;20122;-71
2023/06/18 06:20:43;;;;;;;8.65;6.38;;;18.70;99.90;;;;;;4999596;28;20026;-71
2023/06/18 06:23:09;;;;;;;8.77;6.78;;;18.80;99.90;;;;;;4999130;28;20108;-71
2023/06/18 06:25:35;;;;;;;11.05;6.60;;;18.90;99.90;;;;;;4998704;28;20029;-71
2023/06/18 06:28:00;;;;;;;10.05;6.93;;;18.90;99.90;;;;;;4999506;28;20019;-71
2023/06/18 06:30:26;;;;;;;10.25;6.47;;;18.90;99.90;;;;;;4999703;28;20027;-71
2023/06/18 06:32:51;;;;;;;10.48;7.00;;;19.00;99.90;;;;;;4998435;28;20042;-71
2023/06/18 06:35:17;;;;;;;11.57;7.05;;;19.10;99.90;;;;;;4999437;28;20029;-71
2023/06/18 06:37:43;;;;;;;13.77;7.18;;;19.20;99.90;;;;;;4998706;28;20019;-71
2023/06/18 06:40:09;;;;;;;12.02;7.55;;;19.30;99.90;;;;;;4998628;28;20026;-71
2023/06/18 06:42:35;;;;;;;8.43;6.47;;;19.20;99.90;;;;;;4999326;28;20026;-71
2023/06/18 06:45:01;;;;;;;9.07;6.30;;;19.30;99.90;;;;;;4998228;28;20037;-71
2023/06/18 06:47:27;;;;;;;11.38;6.47;;;19.40;99.90;;;;;;4998220;28;20037;-71
2023/06/18 06:49:52;;;;;;;9.65;6.72;;;19.50;99.90;;;;;;4998393;28;20026;-71
2023/06/18 06:52:18;;;;;;;9.40;6.57;;;19.60;99.90;;;;;;4997998;28;20037;-71
2023/06/18 06:54:43;;;;;;;10.10;7.20;;;19.70;99.90;;;;;;4998251;28;20081;-71
2023/06/18 06:57:09;;;;;;;10.05;6.65;;;19.70;99.90;;;;;;4998369;28;20026;-71
2023/06/18 06:59:34;;;;;;;8.35;6.78;;;19.70;99.90;;;;;;4998057;28;20084;-71
2023/06/18 07:02:00;;;;;;;9.10;6.63;;;19.80;99.90;;;;;;4998097;28;20029;-70
2023/06/18 07:04:26;;;;;;;10.70;7.47;;;19.90;99.90;;;;;;4998237;28;20041;-70
2023/06/18 07:06:52;;;;;;;11.27;6.85;;;20.00;99.90;;;;;;4998185;28;20053;-70
2023/06/18 07:09:18;;;;;;;11.60;7.30;;;20.00;99.90;;;;;;4998065;28;20037;-69
2023/06/18 07:11:43;;;;;;;9.10;6.88;;;20.10;99.90;;;;;;4998451;28;20104;-69
2023/06/18 07:14:09;;;;;;;10.77;6.93;;;20.20;99.90;;;;;;4998919;28;20028;-69
2023/06/18 07:16:35;;;;;;;11.75;6.97;;;20.30;99.90;;;;;;4998681;28;20042;-69
2023/06/18 07:19:03;;;;;;;11.95;7.18;;;20.40;99.90;;;;;;4997498;28;20058;-69
2023/06/18 07:21:29;;;;;;;11.35;6.93;;;20.40;99.90;;;;;;4998234;28;20030;-70
2023/06/18 07:23:55;;;;;;;9.93;7.28;;;20.50;99.90;;;;;;4997943;28;20078;-70
2023/06/18 07:26:21;;;;;;;9.95;6.40;;;20.60;99.90;;;;;;4998335;28;20057;-70
2023/06/18 07:28:46;;;;;;;9.90;6.85;;;20.70;99.90;;;;;;4997782;28;20023;-70
2023/06/18 07:31:12;;;;;;;9.73;6.20;;;20.80;99.90;;;;;;4998317;28;20062;-70
2023/06/18 07:33:37;;;;;;;11.52;6.70;;;20.90;99.90;;;;;;4997666;28;20035;-69
2023/06/18 07:36:03;;;;;;;13.30;8.52;;;21.00;99.90;;;;;;4997401;28;20057;-69
2023/06/18 07:38:28;;;;;;;12.60;6.90;;;21.00;99.90;;;;;;4997717;28;20057;-69
2023/06/18 07:40:54;;;;;;;11.00;7.18;;;21.00;99.90;;;;;;4997297;28;20053;-69
2023/06/18 07:43:19;;;;;;;10.63;7.03;;;21.10;99.90;;;;;;4997479;28;20210;-69
2023/06/18 07:45:45;;;;;;;9.18;6.85;;;21.30;99.90;;;;;;4997080;28;20037;-69
2023/06/18 07:48:11;;;;;;;11.45;7.78;;;21.30;99.90;;;;;;4997427;28;20037;-69
2023/06/18 07:50:36;;;;;;;13.60;7.00;;;21.40;99.90;;;;;;4998324;28;20022;-69
2023/06/18 07:53:03;;;;;;;8.43;6.30;;;21.50;99.90;;;;;;4997309;28;20033;-71
2023/06/18 07:55:28;;;;;;;8.77;6.60;;;21.60;99.90;;;;;;4997087;28;20026;-71
2023/06/18 07:57:54;;;;;;;9.40;6.65;;;21.70;99.90;;;;;;4997109;28;20080;-70
2023/06/18 08:00:20;;;;;;;10.18;6.93;;;21.80;99.90;;;;;;4997038;28;20077;-69
2023/06/18 08:02:46;;;;;;;10.02;7.40;;;21.80;99.90;;;;;;4997278;28;20023;-70
2023/06/18 08:05:12;;;;;;;13.45;6.80;;;22.10;99.90;;;;;;4998194;28;20030;-70
2023/06/18 08:07:38;;;;;;;10.95;7.05;;;22.30;99.90;;;;;;4996701;28;20090;-70
2023/06/18 08:10:05;;;;;;;11.10;7.50;;;22.30;99.90;;;;;;4998128;28;20050;-70
2023/06/18 08:12:32;;;;;;;10.82;7.45;;;22.40;99.90;;;;;;4997620;28;20121;-70
2023/06/18 08:14:58;;;;;;;8.93;6.10;;;22.40;99.90;;;;;;4997763;28;20030;-70
2023/06/18 08:17:23;;;;;;;10.10;6.65;;;22.40;99.90;;;;;;4996792;28;20068;-70
2023/06/18 08:19:49;;;;;;;8.05;6.43;;;22.60;99.90;;;;;;4997565;28;20129;-70
2023/06/18 08:22:15;;;;;;;11.30;7.03;;;22.60;99.90;;;;;;4996614;28;20018;-70
2023/06/18 08:24:41;;;;;;;8.25;6.22;;;22.70;99.90;;;;;;4996889;28;20113;-70
2023/06/18 08:27:07;;;;;;;9.20;6.50;;;22.80;99.90;;;;;;4997563;28;20027;-70
2023/06/18 08:29:33;;;;;;;9.32;7.13;;;23.20;99.90;;;;;;4997086;28;20049;-69
2023/06/18 08:32:04;;;;;;;9.65;6.07;;;23.50;99.90;;;;;;4997445;28;20040;-70
2023/06/18 08:34:33;;;;;;;;;;;23.50;99.90;;;;;;4997272;28;20084;-70
2023/06/18 08:37:00;;;;;;;11.85;6.07;;;23.60;99.90;;;;;;4997366;28;19906;-70
2023/06/18 08:39:29;;;;;;;9.35;7.55;;;23.60;99.90;;;;;;4996528;28;20054;-70
2023/06/18 08:41:59;;;;;;;9.55;6.47;;;23.50;99.90;;;;;;4996497;28;20022;-70
2023/06/18 08:44:26;;;;;;;8.88;6.25;;;23.70;99.90;;;;;;4997500;28;20023;-70
2023/06/18 08:46:57;;;;;;;11.88;6.95;;;23.70;99.90;;;;;;4996979;28;20060;-70
2023/06/18 08:49:24;;;;;;;8.32;6.35;;;23.70;99.90;;;;;;4997501;28;20026;-70
2023/06/18 08:51:53;;;;;;;9.00;7.13;;;24.20;99.90;;;;;;4996305;28;20098;-70
2023/06/18 08:54:20;;;;;;;9.18;6.40;;;24.30;99.90;;;;;;4996359;28;20022;-70
2023/06/18 08:56:49;;;;;;;9.18;6.35;;;24.50;99.90;;;;;;4996374;28;20053;-70
2023/06/18 08:59:14;;;;;;;11.55;7.70;;;24.70;99.90;;;;;;4996727;28;20057;-70
2023/06/18 09:01:42;;;;;;;11.77;6.50;;;24.60;99.90;;;;;;4997196;28;20026;-70
2023/06/18 09:04:09;;;;;;;7.95;5.93;;;24.70;99.90;;;;;;4996212;28;20029;-70
2023/06/18 09:06:35;;;;;;;9.38;6.38;;;24.60;99.90;;;;;;4996395;28;20026;-70
2023/06/18 09:09:01;;;;;;;7.32;6.15;;;24.90;99.90;;;;;;4997201;28;20022;-70
2023/06/18 09:11:27;;;;;;;8.15;5.78;;;25.10;99.90;;;;;;4996509;28;20064;-70
2023/06/18 09:13:53;;;;;;;8.07;6.28;;;25.10;99.90;;;;;;4996263;28;20058;-70
2023/06/18 09:16:19;;;;;;;9.35;6.15;;;25.20;99.90;;;;;;4996462;28;20022;-70
2023/06/18 09:18:48;;;;;;;12.25;6.35;;;25.50;99.90;;;;;;4996605;28;20026;-70
2023/06/18 09:21:39;;;;;;;9.88;6.60;;;25.70;99.90;;;;;;4997042;28;20029;-70
2023/06/18 09:24:23;;;;;;;6.30;5.47;;;25.90;99.90;;;;;;4996548;28;20014;-70
2023/06/18 09:26:59;;;;;;;7.40;5.50;;;26.10;99.90;;;;;;4996168;28;20140;-70
2023/06/18 09:29:31;;;;;;;6.80;5.05;;;26.10;99.90;;;;;;4997077;28;20027;-70
2023/06/18 09:32:04;;;;;;;8.73;5.75;;;26.00;99.90;;;;;;4997269;28;20045;-70
2023/06/18 09:34:31;;;;;;;7.00;5.22;;;26.00;99.90;;;;;;4997195;28;20034;-70
2023/06/18 09:36:56;;;;;;;7.32;5.15;;;26.40;99.90;;;;;;4996765;28;20057;-70
2023/06/18 09:39:25;;;;;;;8.60;5.50;;;26.90;98.20;;;;;;4996214;28;20066;-70
2023/06/18 09:41:55;;;;;;;7.63;5.70;;;27.00;95.90;;;;;;4995901;28;20030;-70
2023/06/18 09:44:22;;;;;;;7.00;5.40;;;27.20;95.20;;;;;;4999158;28;20026;-70
2023/06/18 09:46:58;;;;;;;9.50;5.22;;;26.90;94.50;;;;;;4999831;28;20266;-70
2023/06/18 09:49:25;;;;;;;6.13;5.25;;;26.80;95.20;;;;;;4999379;28;20026;-70
2023/06/18 09:51:52;;;;;;;8.32;5.53;;;26.80;96.20;;;;;;4999593;28;20027;-70
2023/06/18 09:54:18;;;;;;;7.07;5.63;;;26.90;95.10;;;;;;4999287;28;20022;-70
2023/06/18 09:57:02;;;;;;;7.13;4.93;;;27.20;93.70;;;;;;5000082;28;20033;-70
2023/06/18 09:59:28;;;;;;;5.97;5.32;;;27.10;93.20;;;;;;4999487;28;20049;-70
2023/06/18 10:01:57;;;;;;;6.78;5.00;;;27.30;94.00;;;;;;4999105;28;20022;-70
2023/06/18 10:04:25;;;;;;;7.10;5.63;;;27.50;93.70;;;;;;4999200;28;20030;-70
2023/06/18 10:06:56;;;;;;;6.25;5.25;;;27.30;92.40;;;;;;4999070;28;20022;-70
2023/06/18 10:09:23;;;;;;;7.70;5.80;;;27.50;91.90;;;;;;4999183;28;20033;-70
2023/06/18 10:11:51;;;;;;;7.78;5.80;;;27.60;92.40;;;;;;4998890;28;20030;-70
2023/06/18 10:14:23;;;;;;;10.82;5.80;;;27.60;90.90;;;;;;4999787;28;20093;-70
2023/06/18 10:16:51;;;;;;;5.47;4.63;;;27.80;91.10;;;;;;4999988;28;20022;-70
2023/06/18 10:19:30;;;;;;;6.25;4.93;;;27.90;86.60;;;;;;4999043;28;20062;-70
2023/06/18 10:21:59;;;;;;;6.85;5.25;;;28.20;81.30;;;;;;4999631;28;20037;-70
2023/06/18 10:24:39;;;;;;;5.22;4.60;;;28.30;78.70;;;;;;4999677;28;20144;-70
2023/06/18 10:27:06;;;;;;;6.22;4.72;;;28.40;76.60;;;;;;4998775;28;20014;-70
2023/06/18 10:29:32;;;;;;;8.90;4.78;;;28.50;76.60;;;;;;4998533;28;20118;-70
2023/06/18 10:32:00;;;;;;;6.78;4.97;;;28.50;78.20;;;;;;4998460;28;20033;-70
2023/06/18 10:34:26;;;;;;;7.90;5.53;;;28.60;77.50;;;;;;4999460;28;20038;-70
2023/06/18 10:36:54;;;;;;;6.13;4.82;;;28.80;78.20;;;;;;4998367;28;20026;-70
2023/06/18 10:39:21;;;;;;;6.07;4.20;;;29.10;73.70;;;;;;4998379;28;20033;-70
2023/06/18 10:41:46;;;;;;;8.63;4.97;;;29.50;76.00;;;;;;4999176;28;20082;-70
2023/06/18 10:44:12;;;;;;;10.23;5.43;;;29.80;73.50;;;;;;4999155;28;20117;-70
2023/06/18 10:46:38;;;;;;;8.10;5.03;;;30.10;73.30;;;;;;4998363;28;20019;-70
2023/06/18 10:49:17;;;;;;;5.80;4.88;;;30.20;73.70;;;;;;4998571;28;20022;-71
2023/06/18 10:52:05;;;;;;;7.05;5.30;;;30.50;73.20;;;;;;4998407;28;20036;-71
2023/06/18 10:54:30;;;;;;;5.15;4.38;;;30.40;70.60;;;;;;4999561;28;20029;-71
2023/06/18 10:56:58;;;;;;;5.35;4.80;;;30.40;69.70;;;;;;4998382;28;20023;-71
2023/06/18 10:59:35;;;;;;;5.22;4.65;;;30.90;67.00;;;;;;4998747;28;20041;-71
2023/06/18 11:02:01;;;;;;;7.25;4.72;;;31.10;67.90;;;;;;4997911;28;20116;-71
2023/06/18 11:04:33;;;;;;;7.07;4.50;;;31.80;65.50;;;;;;4998868;28;20073;-71
2023/06/18 11:07:27;;;;;;;6.03;4.90;;;32.70;60.80;;;;;;4997960;28;20046;-71
2023/06/18 11:09:58;;;;;;;8.55;5.13;;;32.50;62.30;;;;;;4997872;28;20034;-71
2023/06/18 11:12:26;;;;;;;4.90;4.40;;;32.80;61.20;;;;;;4998853;28;20087;-71
2023/06/18 11:15:12;;;;;;;7.53;5.00;;;33.80;59.60;;;;;;4998530;28;20109;-71
2023/06/18 11:17:40;;;;;;;7.97;5.10;;;32.50;59.70;;;;;;4998278;28;20121;-70
2023/06/18 11:20:06;;;;;;;9.43;4.70;;;31.40;60.10;;;;;;4997851;28;20114;-70
2023/06/18 11:22:35;;;;;;;5.97;4.57;;;31.20;61.60;;;;;;4997749;28;20034;-70
2023/06/18 11:25:01;;;;;;;5.50;4.32;;;31.00;61.10;;;;;;4997960;28;20022;-70
2023/06/18 11:27:27;;;;;;;5.65;4.65;;;31.10;61.10;;;;;;4997421;28;20019;-70
2023/06/18 11:29:57;;;;;;;7.07;4.85;;;31.10;60.80;;;;;;4998506;28;20030;-70
2023/06/18 11:32:24;;;;;;;5.47;4.90;;;31.20;61.00;;;;;;4997330;28;20045;-71
2023/06/18 11:34:50;;;;;;;5.70;4.82;;;31.80;61.50;;;;;;4997485;28;20061;-71
2023/06/18 11:37:16;;;;;;;6.40;4.75;;;32.00;59.80;;;;;;4997384;28;20031;-71
2023/06/18 11:39:42;;;;;;;7.03;4.88;;;31.70;59.00;;;;;;4997590;28;20026;-71
2023/06/18 11:42:14;;;;;;;6.78;4.72;;;31.90;59.40;;;;;;4997128;28;20022;-71
2023/06/18 11:44:51;;;;;;;6.15;5.30;;;32.30;62.00;;;;;;4997378;28;20046;-71
2023/06/18 11:47:17;;;;;;;6.82;5.22;;;33.80;56.60;;;;;;4998103;28;20069;-71
2023/06/18 11:49:46;;;;;;;5.20;4.70;;;34.50;56.30;;;;;;4997164;28;20034;-71
2023/06/18 11:52:23;;;;;;;7.25;5.25;;;35.20;54.10;;;;;;4998133;28;20106;-71
2023/06/18 11:54:50;;;;;;;6.35;4.45;;;34.40;54.90;;;;;;4997877;28;20085;-71
2023/06/18 11:57:18;;;;;;;6.30;4.90;;;34.00;55.30;;;;;;4998053;28;20165;-71
2023/06/18 11:59:44;;;;;;;8.80;4.97;;;35.20;53.90;;;;;;4996886;28;20034;-71
2023/06/18 12:02:18;;;;;;;8.85;4.82;;;34.70;52.70;;;;;;4997885;28;20038;-71
2023/06/18 12:04:44;;;;;;;7.55;5.00;;;33.90;55.20;;;;;;4996813;28;20022;-71
2023/06/18 12:07:21;;;;;;;5.30;4.72;;;34.40;55.30;;;;;;4996755;28;20110;-71
2023/06/18 12:09:48;;;;;;;8.25;5.00;;;35.00;52.50;;;;;;4996826;28;20042;-71
2023/06/18 12:12:22;;;;;;;4.78;4.32;;;35.60;51.80;;;;;;4996729;28;20034;-71
2023/06/18 12:14:47;;;;;;;7.63;4.63;;;35.70;51.70;;;;;;4998013;28;20026;-71
2023/06/18 12:17:29;;;;;;;5.03;4.53;;;35.80;51.30;;;;;;4997713;28;20097;-71
2023/06/18 12:19:59;;;;;;;4.75;3.97;;;35.70;51.30;;;;;;4996707;28;20038;-71
2023/06/18 12:22:26;;;;;;;5.80;4.40;;;35.20;50.80;;;;;;4996664;28;20033;-71
2023/06/18 12:24:52;;;;;;;4.68;4.28;;;35.20;51.30;;;;;;4996790;28;20026;-71
2023/06/18 12:27:18;;;;;;;8.85;5.63;;;34.30;53.80;;;;;;4997153;28;20015;-71
2023/06/18 12:29:46;;;;;;;6.18;4.60;;;34.20;53.10;;;;;;4996573;28;20081;-71
2023/06/18 12:32:12;;;;;;;4.63;4.07;;;34.40;52.00;;;;;;4996420;28;20066;-71
2023/06/18 12:34:39;;;;;;;5.38;4.45;;;34.50;53.20;;;;;;4997460;28;20061;-70
2023/06/18 12:37:05;;;;;;;7.38;4.30;;;34.40;52.50;;;;;;4996677;28;20058;-71
2023/06/18 12:39:30;;;;;;;4.72;4.25;;;33.40;53.30;;;;;;4997286;28;20026;-71
2023/06/18 12:41:56;;;;;;;5.53;4.70;;;33.00;53.80;;;;;;4996586;28;20018;-71
2023/06/18 12:44:23;;;;;;;5.88;4.45;;;33.20;53.90;;;;;;4997379;28;20030;-71